Time;durP1;ratioP1;P1;durP2;ratioP2;P2;SDS_P1;SDS_P2;PMS_P1;PMS_P2;Temp;Humidity;BMP_temperature;BMP_pressure;BME280_temperature;BME280_humidity;BME280_pressure;Samples;Min_cycle;Max_cycle;Signal;HPM_P1;HPM_P2
2022/01/23 00:00:28;;;;;;;2.47;1.85;;;;;;;-2.00;56.59;100242.72;4303940;33;34118;-75
2022/01/23 00:03:00;;;;;;;1.73;1.45;;;;;;;-2.86;58.53;100247.37;4302178;33;33549;-74
2022/01/23 00:05:35;;;;;;;2.87;2.05;;;;;;;-2.46;58.04;100247.88;4311899;33;34035;-73
2022/01/23 00:08:04;;;;;;;2.60;1.95;;;;;;;-2.28;57.42;100261.63;4290906;33;35999;-73
2022/01/23 00:10:33;;;;;;;2.62;1.83;;;;;;;-2.31;57.85;100264.03;4290822;33;34621;-74
2022/01/23 00:18:41;;;;;;;6.95;2.25;;;;;;;-2.10;57.14;100267.75;4302630;33;36000;-75
2022/01/23 00:21:10;;;;;;;11.40;1.90;;;;;;;-2.31;57.39;100271.69;4303574;33;35200;-74
2022/01/23 00:31:40;;;;;;;8.48;2.42;;;;;;;-2.13;57.07;100261.59;4303970;33;35213;-75
2022/01/23 00:34:08;;;;;;;3.72;1.50;;;;;;;-2.35;57.36;100270.63;4312832;33;34372;-73
2022/01/23 00:36:38;;;;;;;3.35;1.65;;;;;;;-2.36;57.25;100270.53;4303511;33;34653;-73
2022/01/23 00:39:05;;;;;;;2.05;1.73;;;;;;;-2.26;57.52;100265.13;4302435;33;34909;-73
2022/01/23 00:41:34;;;;;;;4.18;2.55;;;;;;;-2.38;57.84;100269.56;4297259;33;34339;-73
2022/01/23 00:44:02;;;;;;;2.12;1.77;;;;;;;-2.44;57.44;100265.00;4295401;33;33571;-73
2022/01/23 00:46:34;;;;;;;1.70;1.55;;;;;;;-2.59;58.20;100267.56;4305552;33;34074;-73
2022/01/23 00:49:24;;;;;;;2.42;2.10;;;;;;;-2.53;57.61;100275.56;4286140;33;34959;-73
2022/01/23 00:51:52;;;;;;;5.53;2.83;;;;;;;-2.69;58.17;100278.03;4289911;33;34573;-73
2022/01/23 00:54:21;;;;;;;5.12;2.12;;;;;;;-2.80;58.32;100263.81;4302709;33;33471;-73
2022/01/23 00:56:49;;;;;;;3.97;1.85;;;;;;;-2.81;58.77;100272.22;4305541;33;34081;-73
2022/01/23 00:59:17;;;;;;;1.37;1.25;;;;;;;-2.23;56.97;100270.41;4304606;33;35156;-74
2022/01/23 01:01:46;;;;;;;3.00;2.20;;;;;;;-2.03;56.18;100278.28;4304912;33;34804;-73
2022/01/23 01:04:14;;;;;;;5.43;2.28;;;;;;;-2.18;56.18;100274.09;4291658;33;33587;-73
2022/01/23 01:06:42;;;;;;;6.07;1.48;;;;;;;-2.83;57.82;100268.72;4304365;33;34017;-74
2022/01/23 01:09:12;;;;;;;3.60;2.12;;;;;;;-2.62;57.62;100272.50;4304580;33;35113;-73
2022/01/23 01:14:42;;;;;;;5.95;2.37;;;;;;;-3.22;58.86;100269.03;4304474;33;33715;-73
2022/01/23 01:17:20;;;;;;;2.97;2.47;;;;;;;-2.61;58.19;100266.59;4305589;33;33944;-72
2022/01/23 01:33:46;;;;;;;6.87;2.50;;;;;;;-2.29;57.33;100254.78;4291386;33;35283;-82
2022/01/23 01:39:03;;;;;;;1.80;1.70;;;;;;;-3.00;59.39;100250.78;4293189;33;33921;-73
2022/01/23 01:41:35;;;;;;;2.08;1.65;;;;;;;-2.92;59.04;100249.53;4305211;33;35883;-73
2022/01/23 01:44:03;;;;;;;2.05;1.50;;;;;;;-2.99;59.09;100259.31;4291378;33;34550;-73
2022/01/23 01:46:33;;;;;;;5.45;2.37;;;;;;;-2.80;58.88;100249.38;4305541;33;33265;-74
2022/01/23 01:49:01;;;;;;;3.20;2.08;;;;;;;-2.95;58.62;100254.47;4304600;33;33913;-74
2022/01/23 01:51:31;;;;;;;3.40;2.20;;;;;;;-2.43;57.47;100255.69;4305358;33;35895;-73
2022/01/23 01:54:10;;;;;;;1.90;1.52;;;;;;;-2.96;58.76;100267.13;4303846;33;34558;-73
2022/01/23 01:56:48;;;;;;;5.05;2.33;;;;;;;-2.29;57.42;100273.50;4291668;33;33431;-73
2022/01/23 01:59:34;;;;;;;2.15;1.92;;;;;;;-2.68;58.19;100269.59;4295077;33;34765;-73
2022/01/23 02:10:06;;;;;;;2.87;2.12;;;;;;;-2.36;57.87;100250.13;4304493;33;34092;-74
2022/01/23 02:18:25;;;;;;;4.10;2.40;;;;;;;-2.76;59.41;100237.69;4316233;33;32695;-74
2022/01/23 02:54:42;;;;;;;3.92;2.37;;;;;;;-2.97;60.32;100250.94;4302418;33;34345;-73
2022/01/23 02:57:11;;;;;;;2.12;1.87;;;;;;;-2.91;60.75;100247.88;4304787;33;35960;-76
2022/01/23 02:59:40;;;;;;;2.85;1.85;;;;;;;-2.93;60.30;100241.81;4303724;33;35062;-74
2022/01/23 03:02:34;;;;;;;3.58;2.12;;;;;;;-2.43;58.90;100245.50;4304091;33;33730;-73
2022/01/23 03:05:08;;;;;;;2.03;1.85;;;;;;;-2.31;58.51;100246.19;4293722;33;33945;-73
2022/01/23 03:07:52;;;;;;;5.07;2.97;;;;;;;-3.12;61.12;100235.66;4304268;33;35150;-75
2022/01/23 03:10:30;;;;;;;3.58;2.03;;;;;;;-3.02;60.59;100244.69;4302322;33;35364;-74
2022/01/23 03:16:18;;;;;;;3.53;1.98;;;;;;;-2.66;60.60;100237.44;4304000;33;33957;-75
2022/01/23 03:24:15;;;;;;;3.70;2.58;;;;;;;-2.11;59.11;100244.69;4303594;33;34354;-73
2022/01/23 03:27:27;;;;;;;2.67;2.10;;;;;;;-2.49;60.41;100246.00;4276875;33;33318;-74
2022/01/23 03:29:51;;;;;;;4.15;2.05;;;;;;;-2.81;62.09;100249.28;4293832;33;35143;-74
2022/01/23 03:32:37;;;;;;;4.30;2.42;;;;;;;-2.62;61.94;100249.53;4304457;33;35161;-74
2022/01/23 03:35:06;;;;;;;1.15;1.15;;;;;;;-2.73;62.08;100261.69;4292384;33;33781;-74
2022/01/23 03:37:34;;;;;;;12.27;2.70;;;;;;;-2.27;61.08;100265.94;4304365;33;33831;-76
2022/01/23 03:40:03;;;;;;;6.68;2.67;;;;;;;-2.23;61.21;100265.31;4302889;33;35756;-73
2022/01/23 03:42:34;;;;;;;6.32;2.45;;;;;;;-2.49;61.73;100254.56;4304025;33;34555;-75
2022/01/23 03:50:40;;;;;;;1.95;1.65;;;;;;;-1.83;60.89;100254.72;4292263;33;34965;-80
2022/01/23 03:53:10;;;;;;;4.15;2.67;;;;;;;-1.77;60.27;100249.06;4276966;33;34597;-72
2022/01/23 03:55:38;;;;;;;3.15;2.35;;;;;;;-2.46;62.19;100248.72;4299453;33;34647;-73
2022/01/23 03:58:06;;;;;;;1.75;1.60;;;;;;;-2.39;62.38;100247.41;4304278;33;34009;-73
2022/01/23 04:00:34;;;;;;;5.95;2.67;;;;;;;-2.46;62.29;100241.09;4302787;33;35702;-82
2022/01/23 04:03:03;;;;;;;5.68;2.47;;;;;;;-1.67;60.25;100240.22;4314565;33;34487;-83
2022/01/23 04:05:30;;;;;;;3.35;2.22;;;;;;;-1.71;60.07;100236.63;4303136;33;34345;-77
2022/01/23 04:07:58;;;;;;;2.72;1.87;;;;;;;-1.53;60.17;100241.81;4302647;33;33877;-74
2022/01/23 04:10:28;;;;;;;1.62;1.48;;;;;;;-1.78;60.11;100234.56;4303024;33;35041;-73
2022/01/23 04:13:10;;;;;;;6.47;2.17;;;;;;;-1.78;60.51;100240.53;4303900;33;34249;-75
2022/01/23 04:19:05;;;;;;;2.30;1.73;;;;;;;-1.97;60.92;100248.88;4303681;33;33756;-73
2022/01/23 04:31:38;;;;;;;9.98;2.35;;;;;;;-1.60;59.45;100244.84;4304418;33;35073;-72
2022/01/23 04:32:48;;;;;;;3.65;1.90;;;;;;;-2.00;59.90;100253.81;4305679;33;35057;-74
2022/01/23 05:00:13;;;;;;;12.20;2.35;;;;;;;-1.89;59.70;100262.03;4304784;33;33501;-73
2022/01/23 05:03:40;;;;;;;1.45;1.35;;;;;;;-1.61;59.42;100253.31;4305503;33;34417;-73
2022/01/23 05:05:43;;;;;;;5.45;2.28;;;;;;;-1.88;59.49;100253.59;4304660;33;34990;-77
2022/01/23 05:08:17;;;;;;;2.35;2.15;;;;;;;-2.31;61.40;100248.72;4305538;33;34685;-73
2022/01/23 05:10:46;;;;;;;5.10;3.03;;;;;;;-1.88;60.37;100257.84;4304644;33;34352;-75
2022/01/23 05:13:18;;;;;;;4.93;2.10;;;;;;;-2.39;61.68;100252.50;4305325;33;33931;-73
2022/01/23 05:15:46;;;;;;;4.22;2.10;;;;;;;-1.97;60.75;100256.53;4304244;33;35935;-75
2022/01/23 05:18:13;;;;;;;3.72;2.12;;;;;;;-2.18;61.57;100252.81;4304420;33;34404;-80
2022/01/23 05:20:42;;;;;;;1.48;1.37;;;;;;;-2.19;61.36;100254.50;4295368;33;33444;-73
2022/01/23 05:23:11;;;;;;;2.95;1.90;;;;;;;-2.06;61.41;100257.72;4277822;33;34062;-73
2022/01/23 05:25:40;;;;;;;2.50;2.05;;;;;;;-2.41;62.51;100260.06;4284935;33;35778;-74
2022/01/23 05:28:08;;;;;;;2.60;1.90;;;;;;;-2.61;62.74;100268.25;4305175;33;35082;-79
2022/01/23 05:30:38;;;;;;;3.33;1.73;;;;;;;-1.95;61.10;100269.38;4313993;33;34174;-74
2022/01/23 05:33:06;;;;;;;2.00;1.80;;;;;;;-2.12;61.89;100273.56;4292237;33;34750;-74
2022/01/23 05:35:34;;;;;;;3.87;2.35;;;;;;;-2.18;61.85;100269.00;4303735;33;35201;-74
2022/01/23 05:38:03;;;;;;;3.10;2.30;;;;;;;-1.99;61.42;100277.69;4304232;33;35280;-74
2022/01/23 05:40:30;;;;;;;2.85;2.12;;;;;;;-2.33;62.16;100278.34;4304096;33;33819;-74
2022/01/23 05:42:59;;;;;;;5.65;2.00;;;;;;;-2.24;62.10;100286.53;4315800;33;34035;-75
2022/01/23 05:45:28;;;;;;;5.75;2.25;;;;;;;-2.27;62.36;100288.91;4304232;33;35212;-74
2022/01/23 05:47:58;;;;;;;4.55;2.30;;;;;;;-1.82;61.31;100292.19;4305169;33;34444;-73
2022/01/23 05:50:26;;;;;;;1.98;1.60;;;;;;;-1.88;60.77;100294.44;4302556;33;33349;-82
2022/01/23 05:52:56;;;;;;;2.60;2.00;;;;;;;-2.05;61.67;100295.19;4305288;33;34962;-84
2022/01/23 05:55:25;;;;;;;6.07;2.65;;;;;;;-2.01;61.70;100298.00;4303551;33;34384;-78
2022/01/23 05:57:54;;;;;;;5.05;2.30;;;;;;;-2.19;62.07;100305.53;4290618;33;34368;-78
2022/01/23 06:00:23;;;;;;;5.40;2.22;;;;;;;-2.00;62.29;100302.28;4281394;33;32694;-79
2022/01/23 06:02:52;;;;;;;6.57;2.97;;;;;;;-2.21;62.93;100299.44;4303412;33;34021;-79
2022/01/23 06:05:21;;;;;;;6.72;2.17;;;;;;;-2.19;62.63;100296.97;4291729;33;35978;-78
2022/01/23 06:07:51;;;;;;;4.35;2.65;;;;;;;-2.03;62.13;100308.91;4305279;33;34344;-79
2022/01/23 06:10:22;;;;;;;5.15;2.12;;;;;;;-2.19;63.23;100310.63;4304578;33;34424;-78
2022/01/23 06:12:51;;;;;;;4.12;2.10;;;;;;;-2.19;62.69;100315.72;4303318;33;34164;-78
2022/01/23 06:15:20;;;;;;;12.88;6.00;;;;;;;-2.20;62.23;100316.50;4298106;33;35157;-75
2022/01/23 06:17:48;;;;;;;36.35;12.27;;;;;;;-2.19;62.67;100317.38;4290700;33;34497;-76
2022/01/23 06:20:20;;;;;;;22.50;9.15;;;;;;;-2.31;63.40;100322.69;4288646;33;32763;-75
2022/01/23 06:22:53;;;;;;;42.10;15.82;;;;;;;-1.80;62.11;100328.03;4290581;33;34089;-72
2022/01/23 06:25:29;;;;;;;45.80;21.02;;;;;;;-1.23;60.24;100329.41;4290490;33;35051;-78
2022/01/23 06:28:00;;;;;;;21.75;8.40;;;;;;;-1.50;60.53;100343.25;4290359;33;34449;-77
2022/01/23 06:30:29;;;;;;;14.40;9.05;;;;;;;-1.09;59.36;100348.03;4291051;33;33015;-74
2022/01/23 06:32:57;;;;;;;6.22;3.22;;;;;;;-1.75;61.44;100354.69;4305042;33;33901;-78
2022/01/23 06:35:26;;;;;;;4.53;2.72;;;;;;;-0.98;60.19;100348.56;4304609;33;35972;-76
2022/01/23 06:37:54;;;;;;;5.12;3.92;;;;;;;-1.18;60.61;100352.66;4291805;33;34621;-74
2022/01/23 06:40:24;;;;;;;15.55;6.85;;;;;;;-1.48;61.28;100350.22;4304947;33;34197;-77
2022/01/23 06:42:56;;;;;;;11.80;3.97;;;;;;;-1.35;61.03;100344.94;4302872;33;33845;-75
2022/01/23 06:45:25;;;;;;;8.27;5.68;;;;;;;-1.65;61.66;100359.50;4304627;33;35378;-75
2022/01/23 06:47:54;;;;;;;7.45;4.75;;;;;;;-1.88;62.71;100350.59;4291540;33;33988;-75
2022/01/23 06:50:24;;;;;;;8.07;5.07;;;;;;;-1.93;63.15;100357.12;4304757;33;34163;-76
2022/01/23 06:52:53;;;;;;;6.72;4.40;;;;;;;-1.68;62.23;100354.22;4302001;33;33984;-75
2022/01/23 06:55:21;;;;;;;7.72;4.35;;;;;;;-2.04;63.48;100355.66;4304440;33;35003;-76
2022/01/23 06:57:50;;;;;;;7.30;3.80;;;;;;;-1.92;63.17;100361.44;4304657;33;35234;-78
2022/01/23 07:00:18;;;;;;;7.45;4.15;;;;;;;-1.97;63.38;100355.19;4304459;33;34243;-74
2022/01/23 07:02:49;;;;;;;5.93;4.37;;;;;;;-1.45;61.26;100362.28;4290583;33;32405;-75
2022/01/23 07:05:18;;;;;;;4.22;3.22;;;;;;;-1.81;63.14;100352.69;4303135;33;35190;-74
2022/01/23 07:07:47;;;;;;;5.37;3.10;;;;;;;-1.60;63.12;100357.22;4302910;33;35268;-76
2022/01/23 07:10:20;;;;;;;6.90;2.80;;;;;;;-1.61;62.57;100361.44;4303712;33;33158;-75
2022/01/23 07:12:49;;;;;;;7.70;2.97;;;;;;;-1.55;62.18;100351.56;4291545;33;34828;-74
2022/01/23 07:15:19;;;;;;;6.70;2.90;;;;;;;-1.73;62.73;100361.66;4303816;33;34477;-75
2022/01/23 07:17:50;;;;;;;4.50;2.80;;;;;;;-1.36;61.95;100363.66;4304284;33;34544;-75
2022/01/23 07:20:19;;;;;;;4.62;3.10;;;;;;;-1.40;61.75;100361.72;4304028;33;35251;-75
2022/01/23 07:22:48;;;;;;;5.57;3.22;;;;;;;-1.95;63.79;100353.59;4302851;33;34730;-73
2022/01/23 07:25:18;;;;;;;10.52;3.35;;;;;;;-1.69;62.97;100364.34;4303872;33;35155;-74
2022/01/23 07:27:51;;;;;;;4.60;2.85;;;;;;;-1.25;61.60;100365.87;4303944;33;35126;-74
2022/01/23 07:30:33;;;;;;;6.07;2.80;;;;;;;-1.41;61.72;100370.19;4304139;33;33497;-74
2022/01/23 07:33:03;;;;;;;5.12;2.58;;;;;;;-0.51;59.54;100364.56;4304112;33;34837;-74
2022/01/23 07:35:31;;;;;;;6.60;3.15;;;;;;;-1.01;60.75;100361.19;4303892;33;35909;-74
2022/01/23 07:38:00;;;;;;;6.50;2.75;;;;;;;-1.42;61.91;100368.41;4303976;33;34157;-74
2022/01/23 07:40:29;;;;;;;13.32;3.92;;;;;;;-1.35;61.77;100362.84;4290775;33;33307;-74
2022/01/23 07:43:00;;;;;;;4.55;2.33;;;;;;;-1.38;62.55;100365.25;4303859;33;33818;-74
2022/01/23 07:45:31;;;;;;;11.60;3.55;;;;;;;-1.25;61.82;100360.75;4287989;33;34511;-74
2022/01/23 07:48:01;;;;;;;4.82;3.30;;;;;;;-1.28;62.18;100365.75;4289401;33;35335;-74
2022/01/23 07:50:33;;;;;;;13.88;4.20;;;;;;;-0.53;59.96;100358.50;4289171;33;33545;-75
2022/01/23 07:53:03;;;;;;;6.45;3.05;;;;;;;-0.52;59.40;100357.72;4286241;33;33448;-75
2022/01/23 07:56:03;;;;;;;1.92;1.70;;;;;;;-0.87;60.55;100362.78;4302030;33;34958;-73
2022/01/23 07:58:35;;;;;;;5.03;3.05;;;;;;;-0.93;60.77;100374.38;4300283;33;35203;-83
2022/01/23 08:01:03;;;;;;;6.87;2.75;;;;;;;-0.87;60.71;100372.13;4304813;33;34176;-75
2022/01/23 08:03:32;;;;;;;10.93;4.60;;;;;;;-0.01;58.55;100376.44;4292663;33;33085;-74
2022/01/23 08:06:11;;;;;;;10.02;3.70;;;;;;;0.11;58.01;100378.72;4292936;33;35828;-74
2022/01/23 08:08:43;;;;;;;6.87;3.00;;;;;;;-0.53;59.97;100386.63;4304765;33;34469;-74
2022/01/23 08:11:12;;;;;;;6.37;3.33;;;;;;;-0.78;59.90;100385.38;4304843;33;33794;-74
2022/01/23 08:13:41;;;;;;;5.65;3.12;;;;;;;-0.32;59.70;100376.59;4304796;33;33755;-74
2022/01/23 08:16:10;;;;;;;11.32;3.97;;;;;;;-0.33;59.80;100379.97;4304753;33;35234;-74
2022/01/23 08:18:38;;;;;;;12.85;4.55;;;;;;;0.13;58.66;100383.09;4304017;33;34587;-74
2022/01/23 08:21:11;;;;;;;8.98;3.70;;;;;;;-0.29;60.35;100387.88;4304937;33;33471;-74
2022/01/23 08:23:39;;;;;;;11.48;4.55;;;;;;;0.13;58.29;100392.47;4305363;33;33974;-76
2022/01/23 08:26:09;;;;;;;10.95;4.10;;;;;;;0.24;57.77;100391.28;4290870;33;34991;-74
2022/01/23 08:28:37;;;;;;;8.02;4.60;;;;;;;0.50;57.86;100395.06;4304676;33;35226;-87
2022/01/23 08:31:06;;;;;;;7.95;5.07;;;;;;;0.12;57.97;100401.81;4304654;33;34422;-84
2022/01/23 08:33:36;;;;;;;10.95;3.97;;;;;;;0.24;57.79;100400.66;4305378;33;34162;-88
2022/01/23 08:36:05;;;;;;;3.80;2.35;;;;;;;0.21;57.48;100409.06;4304538;33;35006;-74
2022/01/23 08:38:36;;;;;;;6.10;3.53;;;;;;;0.63;56.43;100416.16;4290259;33;34626;-75
2022/01/23 08:43:53;;;;;;;6.55;3.05;;;;;;;1.06;56.25;100412.97;4305362;33;34643;-80
2022/01/23 08:46:22;;;;;;;4.18;2.50;;;;;;;0.87;56.01;100427.53;4314487;33;35049;-81
2022/01/23 08:48:56;;;;;;;4.78;2.78;;;;;;;0.92;55.95;100418.38;4305218;33;34591;-74
2022/01/23 08:51:24;;;;;;;6.15;3.30;;;;;;;0.04;57.88;100412.50;4304576;33;33579;-76
2022/01/23 08:53:53;;;;;;;7.40;3.00;;;;;;;0.93;56.03;100417.53;4304451;33;33624;-75
2022/01/23 08:56:23;;;;;;;5.25;3.00;;;;;;;0.56;57.15;100410.75;4291467;33;36006;-75
2022/01/23 08:58:52;;;;;;;5.60;2.95;;;;;;;-0.04;57.89;100414.69;4305222;33;34572;-76
2022/01/23 09:01:22;;;;;;;7.20;3.67;;;;;;;-0.08;58.29;100423.03;4314407;33;34492;-74
2022/01/23 09:03:51;;;;;;;10.32;4.12;;;;;;;0.77;55.91;100407.41;4315888;33;34008;-75
2022/01/23 09:06:21;;;;;;;9.98;4.50;;;;;;;-0.04;58.10;100414.69;4291163;33;34890;-76
2022/01/23 09:08:51;;;;;;;8.45;4.45;;;;;;;0.76;56.75;100415.91;4292270;33;34346;-74
2022/01/23 09:14:06;;;;;;;16.17;6.45;;;;;;;0.87;56.21;100427.53;4292612;33;34808;-76
2022/01/23 09:16:41;;;;;;;9.35;4.70;;;;;;;1.71;54.28;100434.63;4300507;33;35216;-75
2022/01/23 09:19:22;;;;;;;9.07;3.97;;;;;;;1.95;53.61;100432.22;4303036;33;35247;-74
2022/01/23 09:21:53;;;;;;;10.98;4.87;;;;;;;0.33;57.24;100427.56;4302349;33;32453;-80
2022/01/23 09:24:23;;;;;;;9.45;5.12;;;;;;;0.89;56.35;100428.47;4304216;33;34702;-84
2022/01/23 09:26:54;;;;;;;6.30;3.75;;;;;;;0.99;55.36;100432.34;4282125;33;35181;-81
2022/01/23 09:29:34;;;;;;;9.95;4.35;;;;;;;1.01;55.31;100433.28;4278144;33;34349;-76
2022/01/23 09:32:09;;;;;;;13.75;4.03;;;;;;;1.37;55.33;100429.72;4299385;33;33724;-82
2022/01/23 09:34:37;;;;;;;7.50;3.60;;;;;;;2.12;52.79;100434.59;4305195;33;33838;-84
2022/01/23 09:37:08;;;;;;;10.25;3.58;;;;;;;2.17;52.19;100433.09;4304172;33;35150;-75
2022/01/23 09:39:37;;;;;;;5.95;3.08;;;;;;;2.75;50.70;100439.66;4304211;33;33672;-76
2022/01/23 09:42:15;;;;;;;5.10;2.58;;;;;;;1.82;52.83;100442.78;4291362;33;32622;-78
2022/01/23 09:44:53;;;;;;;8.05;3.40;;;;;;;1.78;53.82;100443.47;4305320;33;33901;-77
2022/01/23 09:47:21;;;;;;;7.68;3.85;;;;;;;2.10;52.45;100431.97;4304612;33;35496;-78
2022/01/23 09:49:52;;;;;;;18.23;4.97;;;;;;;1.76;53.17;100439.94;4292526;33;34364;-74
2022/01/23 09:52:33;;;;;;;5.55;3.67;;;;;;;1.55;55.14;100439.91;4309750;33;34503;-75
2022/01/23 09:55:10;;;;;;;5.47;3.55;;;;;;;1.71;53.50;100437.19;4291830;33;34027;-76
2022/01/23 09:57:44;;;;;;;14.85;5.85;;;;;;;1.88;53.31;100440.47;4291844;33;35052;-76
2022/01/23 10:00:19;;;;;;;9.90;4.18;;;;;;;2.06;52.61;100440.34;4304210;33;34382;-76
2022/01/23 10:02:47;;;;;;;12.90;5.03;;;;;;;2.27;51.86;100436.06;4291097;33;34448;-76
2022/01/23 10:05:17;;;;;;;9.43;5.20;;;;;;;2.58;51.22;100437.31;4292148;33;34330;-76
2022/01/23 10:07:45;;;;;;;10.10;5.10;;;;;;;2.28;51.74;100443.00;4304468;33;35218;-76
2022/01/23 10:10:19;;;;;;;7.97;4.45;;;;;;;2.30;52.37;100440.47;4291163;33;34562;-77
2022/01/23 10:12:59;;;;;;;9.27;4.87;;;;;;;1.99;52.58;100423.81;4304115;33;34169;-76
2022/01/23 10:15:31;;;;;;;9.43;4.57;;;;;;;2.51;51.74;100434.44;4305086;33;33914;-76
2022/01/23 10:18:01;;;;;;;7.50;3.75;;;;;;;2.13;52.94;100426.06;4290380;33;35062;-74
2022/01/23 10:20:29;;;;;;;7.40;4.10;;;;;;;1.97;52.70;100430.56;4291977;33;34467;-74
2022/01/23 10:22:59;;;;;;;7.82;3.72;;;;;;;2.58;51.07;100421.88;4290466;33;33654;-74
2022/01/23 10:25:30;;;;;;;7.55;3.62;;;;;;;2.34;52.02;100429.50;4304936;33;33943;-74
2022/01/23 10:28:05;;;;;;;16.10;6.25;;;;;;;2.74;51.39;100423.34;4291430;33;35103;-77
2022/01/23 10:30:39;;;;;;;24.33;6.62;;;;;;;1.92;53.26;100424.38;4292013;33;34409;-77
2022/01/23 10:33:15;;;;;;;8.48;4.15;;;;;;;2.59;52.31;100418.47;4304307;33;34268;-78
2022/01/23 10:35:52;;;;;;;9.77;4.30;;;;;;;2.49;51.10;100415.50;4313015;33;33839;-77
2022/01/23 10:38:21;;;;;;;20.60;6.25;;;;;;;2.63;51.62;100414.38;4290172;33;35812;-76
2022/01/23 10:40:55;;;;;;;7.12;4.12;;;;;;;2.11;53.03;100423.44;4297746;33;34479;-75
2022/01/23 10:48:45;;;;;;;20.62;5.60;;;;;;;2.77;51.81;100422.56;4304599;33;35076;-74
2022/01/23 10:51:43;;;;;;;8.05;3.92;;;;;;;3.43;49.97;100425.03;4303439;33;34474;-74
2022/01/23 10:54:21;;;;;;;12.50;4.00;;;;;;;3.08;50.00;100419.47;4286709;33;33452;-76
2022/01/23 10:56:49;;;;;;;10.93;3.67;;;;;;;2.47;50.91;100413.75;4287090;33;33816;-76
2022/01/23 10:59:17;;;;;;;8.32;5.05;;;;;;;2.08;53.37;100413.03;4302676;33;35948;-73
2022/01/23 11:02:07;;;;;;;9.55;5.18;;;;;;;1.76;53.78;100409.13;4303409;33;35669;-73
2022/01/23 11:04:56;;;;;;;6.60;3.45;;;;;;;2.32;52.76;100408.00;4303852;33;33181;-74
2022/01/23 11:07:25;;;;;;;8.95;6.10;;;;;;;2.13;53.17;100410.66;4290806;33;34626;-75
2022/01/23 11:10:02;;;;;;;12.25;4.65;;;;;;;2.57;52.95;100404.69;4291582;33;34929;-74
2022/01/23 11:18:04;;;;;;;9.18;4.35;;;;;;;3.35;50.21;100414.47;4304233;33;33935;-80
2022/01/23 11:20:32;;;;;;;7.65;2.92;;;;;;;2.31;52.93;100411.38;4304687;33;34396;-85
2022/01/23 11:23:03;;;;;;;18.33;5.53;;;;;;;2.33;53.61;100414.00;4303286;33;34452;-81
2022/01/23 11:25:31;;;;;;;8.48;3.80;;;;;;;2.60;52.28;100420.25;4303224;33;34229;-80
2022/01/23 11:28:04;;;;;;;7.60;4.22;;;;;;;2.44;52.77;100423.91;4301544;33;34099;-75
2022/01/23 11:30:44;;;;;;;8.45;3.78;;;;;;;2.61;52.04;100415.97;4297909;33;35904;-75
2022/01/23 11:33:18;;;;;;;6.55;3.33;;;;;;;2.62;51.99;100430.59;4303348;33;34477;-75
2022/01/23 11:35:47;;;;;;;11.15;3.90;;;;;;;2.69;52.45;100424.00;4303316;33;34358;-76
2022/01/23 11:38:21;;;;;;;5.85;3.55;;;;;;;3.11;51.16;100417.00;4303321;33;33933;-75
2022/01/23 11:54:44;;;;;;;15.45;4.93;;;;;;;2.72;52.56;100418.94;4304262;33;34617;-81
2022/01/23 11:57:37;;;;;;;13.57;4.25;;;;;;;2.97;52.24;100420.78;4303098;33;33444;-75
2022/01/23 12:00:12;;;;;;;12.02;4.65;;;;;;;2.37;53.99;100416.78;4303955;33;33955;-75
2022/01/23 12:02:42;;;;;;;9.88;4.82;;;;;;;2.33;53.63;100414.00;4303074;33;35870;-75
2022/01/23 12:05:11;;;;;;;10.13;4.03;;;;;;;1.86;54.66;100411.28;4303895;33;35145;-74
2022/01/23 12:07:41;;;;;;;9.80;4.80;;;;;;;2.17;54.25;100399.69;4302105;33;33469;-76
2022/01/23 12:10:17;;;;;;;12.02;4.00;;;;;;;1.74;55.38;100400.50;4289746;33;34166;-78
2022/01/23 12:12:48;;;;;;;9.35;4.07;;;;;;;1.61;56.44;100401.69;4302915;33;35024;-76
2022/01/23 12:18:18;;;;;;;7.78;4.28;;;;;;;2.13;54.29;100395.25;4302074;33;34165;-78
2022/01/23 12:20:47;;;;;;;14.05;4.35;;;;;;;2.34;54.41;100398.66;4303657;33;33539;-88
2022/01/23 12:23:15;;;;;;;10.55;3.72;;;;;;;2.24;53.68;100394.88;4298500;33;34944;-74
2022/01/23 12:25:47;;;;;;;11.40;5.35;;;;;;;1.80;56.72;100393.94;4303300;33;34480;-75
2022/01/23 12:28:31;;;;;;;9.88;4.18;;;;;;;2.41;54.11;100395.50;4302081;33;33506;-74
2022/01/23 12:31:01;;;;;;;11.30;3.85;;;;;;;1.92;54.86;100390.97;4303492;33;33572;-74
2022/01/23 12:33:53;;;;;;;7.18;4.07;;;;;;;2.07;54.10;100380.47;4310034;33;35787;-75
2022/01/23 12:36:25;;;;;;;10.65;3.67;;;;;;;2.22;53.41;100390.47;4303457;33;34155;-75
2022/01/23 12:39:18;;;;;;;8.50;3.78;;;;;;;1.98;54.79;100385.25;4302122;33;31286;-84
2022/01/23 12:41:52;;;;;;;8.00;3.50;;;;;;;2.15;54.55;100388.47;4305493;33;34753;-75
2022/01/23 12:44:23;;;;;;;18.30;5.95;;;;;;;2.24;53.43;100388.81;4305410;33;35811;-74
2022/01/23 12:46:58;;;;;;;8.05;3.70;;;;;;;2.11;54.04;100381.47;4303835;33;34543;-78
2022/01/23 12:49:30;;;;;;;6.37;3.03;;;;;;;2.78;52.12;100389.19;4305282;33;34317;-75
2022/01/23 12:52:07;;;;;;;12.00;4.22;;;;;;;2.79;51.97;100380.69;4304646;33;33854;-75
2022/01/23 12:54:50;;;;;;;11.73;4.57;;;;;;;2.11;53.63;100379.75;4304726;33;35019;-84
2022/01/23 12:57:19;;;;;;;10.05;3.40;;;;;;;1.95;53.20;100378.25;4314594;33;34412;-75
2022/01/23 13:00:00;;;;;;;7.85;2.90;;;;;;;1.89;53.48;100372.91;4305251;33;33410;-78
2022/01/23 13:02:38;;;;;;;8.13;4.00;;;;;;;2.01;52.17;100369.94;4302969;33;34056;-75
2022/01/23 13:05:07;;;;;;;8.95;3.83;;;;;;;1.72;53.98;100369.63;4304394;33;35126;-76
2022/01/23 13:13:16;;;;;;;10.63;4.22;;;;;;;1.84;53.50;100382.09;4304630;33;34695;-74
2022/01/23 13:16:01;;;;;;;8.10;4.10;;;;;;;1.86;52.43;100380.47;4305144;33;35858;-77
2022/01/23 13:18:38;;;;;;;9.93;4.60;;;;;;;2.09;52.30;100377.13;4304119;33;34621;-77
2022/01/23 13:29:57;;;;;;;10.95;4.18;;;;;;;1.37;53.64;100370.72;4305164;33;35299;-76
2022/01/23 13:32:36;;;;;;;9.40;4.03;;;;;;;1.99;52.27;100377.56;4304594;33;34278;-75
2022/01/23 13:35:11;;;;;;;6.93;3.85;;;;;;;2.67;51.68;100380.22;4293109;33;33949;-77
2022/01/23 13:37:42;;;;;;;16.33;5.50;;;;;;;2.46;51.73;100381.16;4304223;33;35068;-74
2022/01/23 13:40:19;;;;;;;8.70;4.25;;;;;;;2.66;50.91;100378.47;4304162;33;35165;-74
2022/01/23 13:59:37;;;;;;;7.82;3.78;;;;;;;2.53;50.96;100386.53;4304914;33;35062;-75
2022/01/23 14:02:15;;;;;;;13.40;3.70;;;;;;;1.65;54.44;100390.72;4304585;33;35148;-82
2022/01/23 14:05:17;;;;;;;11.35;4.90;;;;;;;2.14;52.86;100394.44;4293266;33;33455;-82
2022/01/23 14:07:51;;;;;;;8.32;3.78;;;;;;;1.99;53.03;100387.84;4280692;33;34045;-80
2022/01/23 14:10:23;;;;;;;7.18;3.25;;;;;;;1.79;52.96;100375.91;4290451;33;35048;-75
2022/01/23 14:12:53;;;;;;;9.60;3.37;;;;;;;2.14;52.52;100385.03;4290804;33;34423;-75
2022/01/23 14:15:28;;;;;;;9.45;3.80;;;;;;;1.93;53.59;100385.03;4303637;33;33002;-86
2022/01/23 14:18:08;;;;;;;11.48;3.72;;;;;;;1.76;54.36;100386.03;4291176;33;33912;-88
2022/01/23 14:20:58;;;;;;;7.12;3.83;;;;;;;1.44;54.20;100380.41;4306098;33;35386;-91
2022/01/23 14:23:27;;;;;;;11.98;4.28;;;;;;;1.08;54.91;100380.59;4291394;33;34387;-75
2022/01/23 14:25:59;;;;;;;5.22;3.20;;;;;;;1.26;54.68;100383.06;4292199;33;33594;-75
2022/01/23 14:28:43;;;;;;;5.70;2.60;;;;;;;1.01;55.62;100381.12;4304170;33;34002;-73
2022/01/23 14:31:18;;;;;;;11.88;3.42;;;;;;;1.23;54.81;100381.25;4290724;33;35226;-74
2022/01/23 14:33:50;;;;;;;6.40;3.17;;;;;;;1.04;55.00;100381.25;4304129;33;35296;-75
2022/01/23 14:36:31;;;;;;;10.18;3.80;;;;;;;1.64;53.97;100379.59;4293339;33;33841;-75
2022/01/23 14:39:08;;;;;;;9.50;4.60;;;;;;;1.31;53.85;100395.28;4302819;33;33179;-77
2022/01/23 14:41:42;;;;;;;7.70;3.40;;;;;;;1.44;53.83;100400.94;4299228;33;191665;-77
2022/01/23 14:44:16;;;;;;;8.48;3.37;;;;;;;1.21;55.02;100399.97;4290868;33;35093;-75
2022/01/23 14:46:49;;;;;;;7.45;3.45;;;;;;;1.49;53.69;100409.72;4290459;33;33374;-76
2022/01/23 14:49:23;;;;;;;9.27;3.78;;;;;;;1.33;54.60;100409.06;4290814;33;33337;-74
2022/01/23 14:51:53;;;;;;;9.00;3.87;;;;;;;1.48;54.26;100407.97;4303836;33;35005;-76
2022/01/23 14:54:22;;;;;;;11.10;4.35;;;;;;;1.65;53.77;100413.81;4301007;33;35073;-74
2022/01/23 14:56:51;;;;;;;11.23;4.57;;;;;;;1.87;52.91;100428.44;4291785;33;31878;-78
2022/01/23 14:59:19;;;;;;;11.20;4.30;;;;;;;1.07;55.06;100418.16;4313757;33;33717;-77
2022/01/23 15:01:47;;;;;;;12.73;4.25;;;;;;;1.18;54.68;100426.34;4304708;33;35881;-76
2022/01/23 15:04:20;;;;;;;7.50;3.75;;;;;;;1.05;55.06;100429.19;4313220;33;33101;-78
2022/01/23 15:06:51;;;;;;;9.80;3.58;;;;;;;1.31;54.33;100435.47;4304851;33;33630;-77